sensor_id;sensor_type;location;lat;lon;timestamp;pressure;altitude;pressure_sealevel;temperature;humidity
9774;BME280;4926;42.670;23.316;2023-09-19T00:00:21;94956.03;;;17.90;85.03
9774;BME280;4926;42.670;23.316;2023-09-19T00:02:53;94961.41;;;17.90;85.63
9774;BME280;4926;42.670;23.316;2023-09-19T00:05:25;94959.19;;;17.92;85.78
9774;BME280;4926;42.670;23.316;2023-09-19T00:07:54;94960.97;;;17.79;86.18
9774;BME280;4926;42.670;23.316;2023-09-19T00:10:25;94969.25;;;17.66;87.37
9774;BME280;4926;42.670;23.316;2023-09-19T00:12:55;94964.84;;;17.61;88.13
9774;BME280;4926;42.670;23.316;2023-09-19T00:15:22;94964.22;;;17.56;88.83
9774;BME280;4926;42.670;23.316;2023-09-19T00:17:51;94973.06;;;17.73;88.23
9774;BME280;4926;42.670;23.316;2023-09-19T00:20:18;94963.41;;;17.64;89.01
9774;BME280;4926;42.670;23.316;2023-09-19T00:22:48;94963.06;;;17.74;88.43
9774;BME280;4926;42.670;23.316;2023-09-19T00:25:16;94961.97;;;17.66;89.11
9774;BME280;4926;42.670;23.316;2023-09-19T00:27:44;94953.13;;;17.57;90.06
9774;BME280;4926;42.670;23.316;2023-09-19T00:30:14;94951.22;;;17.41;92.18
9774;BME280;4926;42.670;23.316;2023-09-19T00:32:45;94947.91;;;17.44;92.70
9774;BME280;4926;42.670;23.316;2023-09-19T00:35:13;94938.25;;;17.43;93.11
9774;BME280;4926;42.670;23.316;2023-09-19T00:37:40;94942.88;;;17.51;92.65
9774;BME280;4926;42.670;23.316;2023-09-19T00:40:08;94939.34;;;17.59;92.88
9774;BME280;4926;42.670;23.316;2023-09-19T00:42:39;94930.97;;;17.43;93.51
9774;BME280;4926;42.670;23.316;2023-09-19T00:45:07;94925.28;;;17.36;94.74
9774;BME280;4926;42.670;23.316;2023-09-19T00:47:37;94928.78;;;17.28;95.47
9774;BME280;4926;42.670;23.316;2023-09-19T00:50:06;94929.88;;;17.19;97.15
9774;BME280;4926;42.670;23.316;2023-09-19T00:52:36;94934.31;;;17.15;97.93
9774;BME280;4926;42.670;23.316;2023-09-19T00:55:10;94924.19;;;17.12;97.78
9774;BME280;4926;42.670;23.316;2023-09-19T00:57:39;94923.72;;;17.18;98.26
9774;BME280;4926;42.670;23.316;2023-09-19T01:00:08;94918.81;;;17.20;97.99
9774;BME280;4926;42.670;23.316;2023-09-19T01:02:50;94913.91;;;17.14;98.51
9774;BME280;4926;42.670;23.316;2023-09-19T01:05:17;94919.63;;;17.12;98.88
9774;BME280;4926;42.670;23.316;2023-09-19T01:07:45;94915.34;;;17.11;99.44
9774;BME280;4926;42.670;23.316;2023-09-19T01:10:15;94914.41;;;17.16;99.25
9774;BME280;4926;42.670;23.316;2023-09-19T01:12:54;94909.78;;;17.08;100.00
9774;BME280;4926;42.670;23.316;2023-09-19T01:15:38;94900.50;;;16.97;100.00
9774;BME280;4926;42.670;23.316;2023-09-19T01:18:21;94905.72;;;16.85;100.00
9774;BME280;4926;42.670;23.316;2023-09-19T01:20:58;94911.56;;;16.87;100.00
9774;BME280;4926;42.670;23.316;2023-09-19T01:23:39;94916.31;;;16.90;100.00
9774;BME280;4926;42.670;23.316;2023-09-19T01:26:27;94909.66;;;16.96;100.00
9774;BME280;4926;42.670;23.316;2023-09-19T01:29:13;94908.09;;;16.95;100.00
9774;BME280;4926;42.670;23.316;2023-09-19T01:31:49;94908.25;;;16.90;100.00
9774;BME280;4926;42.670;23.316;2023-09-19T01:34:19;94897.66;;;16.85;100.00
9774;BME280;4926;42.670;23.316;2023-09-19T01:36:48;94903.34;;;16.92;100.00
9774;BME280;4926;42.670;23.316;2023-09-19T01:39:15;94891.47;;;16.93;100.00
9774;BME280;4926;42.670;23.316;2023-09-19T01:41:54;94899.06;;;16.91;100.00
9774;BME280;4926;42.670;23.316;2023-09-19T01:44:40;94899.53;;;16.93;100.00
9774;BME280;4926;42.670;23.316;2023-09-19T01:47:19;94896.22;;;16.96;100.00
9774;BME280;4926;42.670;23.316;2023-09-19T01:49:55;94895.44;;;17.04;100.00
9774;BME280;4926;42.670;23.316;2023-09-19T01:52:28;94903.66;;;17.07;100.00
9774;BME280;4926;42.670;23.316;2023-09-19T01:55:02;94894.59;;;17.20;100.00
9774;BME280;4926;42.670;23.316;2023-09-19T01:57:42;94898.88;;;17.13;100.00
9774;BME280;4926;42.670;23.316;2023-09-19T02:00:14;94905.06;;;17.13;100.00
9774;BME280;4926;42.670;23.316;2023-09-19T02:02:49;94912.94;;;17.18;100.00
9774;BME280;4926;42.670;23.316;2023-09-19T02:05:22;94909.94;;;17.20;100.00
9774;BME280;4926;42.670;23.316;2023-09-19T02:07:50;94915.00;;;17.30;100.00
9774;BME280;4926;42.670;23.316;2023-09-19T02:10:17;94907.72;;;17.22;100.00
9774;BME280;4926;42.670;23.316;2023-09-19T02:12:44;94906.66;;;17.14;100.00
9774;BME280;4926;42.670;23.316;2023-09-19T02:15:14;94907.41;;;17.15;100.00
9774;BME280;4926;42.670;23.316;2023-09-19T02:17:44;94903.47;;;17.12;100.00
9774;BME280;4926;42.670;23.316;2023-09-19T02:20:12;94904.56;;;17.20;100.00
9774;BME280;4926;42.670;23.316;2023-09-19T02:22:42;94906.63;;;17.06;100.00
9774;BME280;4926;42.670;23.316;2023-09-19T02:25:09;94906.47;;;17.02;100.00
9774;BME280;4926;42.670;23.316;2023-09-19T02:27:36;94901.44;;;16.84;100.00
9774;BME280;4926;42.670;23.316;2023-09-19T02:30:06;94896.38;;;16.73;100.00
9774;BME280;4926;42.670;23.316;2023-09-19T02:32:36;94894.94;;;16.59;100.00
9774;BME280;4926;42.670;23.316;2023-09-19T02:35:07;94896.84;;;16.58;100.00
9774;BME280;4926;42.670;23.316;2023-09-19T02:37:37;94900.00;;;16.52;100.00
9774;BME280;4926;42.670;23.316;2023-09-19T02:40:05;94894.78;;;16.47;100.00
9774;BME280;4926;42.670;23.316;2023-09-19T02:42:44;94885.31;;;16.49;100.00
9774;BME280;4926;42.670;23.316;2023-09-19T02:45:14;94880.19;;;16.39;100.00
9774;BME280;4926;42.670;23.316;2023-09-19T02:47:43;94874.66;;;16.36;100.00
9774;BME280;4926;42.670;23.316;2023-09-19T02:50:10;94876.41;;;16.40;100.00
9774;BME280;4926;42.670;23.316;2023-09-19T02:52:41;94865.81;;;16.35;100.00
9774;BME280;4926;42.670;23.316;2023-09-19T02:55:09;94877.50;;;16.31;100.00
9774;BME280;4926;42.670;23.316;2023-09-19T02:57:37;94876.09;;;16.33;100.00
9774;BME280;4926;42.670;23.316;2023-09-19T03:00:07;94873.84;;;16.18;100.00
9774;BME280;4926;42.670;23.316;2023-09-19T03:02:36;94877.34;;;16.27;100.00
9774;BME280;4926;42.670;23.316;2023-09-19T03:05:04;94873.09;;;16.26;100.00
9774;BME280;4926;42.670;23.316;2023-09-19T03:07:34;94869.44;;;16.39;100.00
9774;BME280;4926;42.670;23.316;2023-09-19T03:10:05;94860.66;;;16.47;100.00
9774;BME280;4926;42.670;23.316;2023-09-19T03:12:34;94848.31;;;16.46;100.00
9774;BME280;4926;42.670;23.316;2023-09-19T03:15:02;94861.13;;;16.58;100.00
9774;BME280;4926;42.670;23.316;2023-09-19T03:17:29;94857.63;;;16.57;100.00
9774;BME280;4926;42.670;23.316;2023-09-19T03:19:58;94857.16;;;16.55;100.00
9774;BME280;4926;42.670;23.316;2023-09-19T03:22:27;94860.00;;;16.67;100.00
9774;BME280;4926;42.670;23.316;2023-09-19T03:24:54;94859.53;;;16.74;100.00
9774;BME280;4926;42.670;23.316;2023-09-19T03:27:24;94856.38;;;16.72;100.00
9774;BME280;4926;42.670;23.316;2023-09-19T03:29:53;94859.06;;;16.63;100.00
9774;BME280;4926;42.670;23.316;2023-09-19T03:32:26;94856.53;;;16.58;100.00
9774;BME280;4926;42.670;23.316;2023-09-19T03:34:53;94856.06;;;16.56;100.00
9774;BME280;4926;42.670;23.316;2023-09-19T03:37:23;94855.44;;;16.51;100.00
9774;BME280;4926;42.670;23.316;2023-09-19T03:39:54;94876.13;;;16.50;100.00
9774;BME280;4926;42.670;23.316;2023-09-19T03:42:23;94869.66;;;16.60;100.00
9774;BME280;4926;42.670;23.316;2023-09-19T03:44:51;94868.88;;;16.59;100.00
9774;BME280;4926;42.670;23.316;2023-09-19T03:47:20;94873.28;;;16.64;100.00
9774;BME280;4926;42.670;23.316;2023-09-19T03:49:47;94871.72;;;16.71;100.00
9774;BME280;4926;42.670;23.316;2023-09-19T03:52:14;94882.78;;;16.70;100.00
9774;BME280;4926;42.670;23.316;2023-09-19T03:54:41;94878.81;;;16.67;100.00
9774;BME280;4926;42.670;23.316;2023-09-19T03:57:08;94882.16;;;16.73;100.00
9774;BME280;4926;42.670;23.316;2023-09-19T03:59:37;94878.69;;;16.81;100.00
9774;BME280;4926;42.670;23.316;2023-09-19T04:02:05;94879.94;;;16.84;100.00
9774;BME280;4926;42.670;23.316;2023-09-19T04:04:37;94873.13;;;16.86;100.00
9774;BME280;4926;42.670;23.316;2023-09-19T04:07:04;94885.63;;;16.91;100.00
9774;BME280;4926;42.670;23.316;2023-09-19T04:09:32;94890.66;;;16.92;100.00
9774;BME280;4926;42.670;23.316;2023-09-19T04:12:00;94891.31;;;16.98;100.00
9774;BME280;4926;42.670;23.316;2023-09-19T04:14:28;94902.72;;;16.95;100.00
9774;BME280;4926;42.670;23.316;2023-09-19T04:16:58;94904.44;;;16.99;100.00
9774;BME280;4926;42.670;23.316;2023-09-19T04:19:28;94897.66;;;16.85;100.00
9774;BME280;4926;42.670;23.316;2023-09-19T04:21:55;94894.34;;;16.79;100.00
9774;BME280;4926;42.670;23.316;2023-09-19T04:24:26;94883.75;;;16.74;100.00
9774;BME280;4926;42.670;23.316;2023-09-19T04:26:53;94894.00;;;16.81;100.00
9774;BME280;4926;42.670;23.316;2023-09-19T04:29:22;94887.69;;;16.77;100.00
9774;BME280;4926;42.670;23.316;2023-09-19T04:31:53;94880.88;;;16.53;100.00
9774;BME280;4926;42.670;23.316;2023-09-19T04:34:23;94886.25;;;16.53;100.00
9774;BME280;4926;42.670;23.316;2023-09-19T04:36:53;94890.94;;;16.39;100.00
9774;BME280;4926;42.670;23.316;2023-09-19T04:39:19;94893.34;;;16.41;100.00
9774;BME280;4926;42.670;23.316;2023-09-19T04:41:46;94891.91;;;16.35;100.00
9774;BME280;4926;42.670;23.316;2023-09-19T04:44:16;94882.75;;;16.44;100.00
9774;BME280;4926;42.670;23.316;2023-09-19T04:46:43;94879.75;;;16.46;100.00
9774;BME280;4926;42.670;23.316;2023-09-19T04:49:11;94884.16;;;16.42;100.00
9774;BME280;4926;42.670;23.316;2023-09-19T04:51:40;94882.28;;;16.34;100.00
9774;BME280;4926;42.670;23.316;2023-09-19T04:54:09;94882.88;;;16.39;100.00
9774;BME280;4926;42.670;23.316;2023-09-19T04:56:41;94878.66;;;16.55;100.00
9774;BME280;4926;42.670;23.316;2023-09-19T04:59:10;94870.28;;;16.57;100.00
9774;BME280;4926;42.670;23.316;2023-09-19T05:01:37;94876.63;;;16.52;100.00
9774;BME280;4926;42.670;23.316;2023-09-19T05:04:07;94873.56;;;16.45;100.00
9774;BME280;4926;42.670;23.316;2023-09-19T05:06:37;94868.50;;;16.35;100.00
9774;BME280;4926;42.670;23.316;2023-09-19T05:09:06;94873.88;;;16.27;100.00
9774;BME280;4926;42.670;23.316;2023-09-19T05:11:33;94877.34;;;16.27;100.00
9774;BME280;4926;42.670;23.316;2023-09-19T05:14:04;94878.31;;;16.31;100.00
9774;BME280;4926;42.670;23.316;2023-09-19T05:16:31;94879.75;;;16.37;100.00
9774;BME280;4926;42.670;23.316;2023-09-19T05:18:58;94870.44;;;16.60;100.00
9774;BME280;4926;42.670;23.316;2023-09-19T05:21:44;94876.44;;;16.74;100.00
9774;BME280;4926;42.670;23.316;2023-09-19T05:24:15;94868.22;;;16.80;100.00
9774;BME280;4926;42.670;23.316;2023-09-19T05:26:44;94871.38;;;16.82;100.00
9774;BME280;4926;42.670;23.316;2023-09-19T05:29:11;94867.13;;;16.89;100.00
9774;BME280;4926;42.670;23.316;2023-09-19T05:31:38;94867.56;;;17.00;100.00
9774;BME280;4926;42.670;23.316;2023-09-19T05:34:06;94859.63;;;17.12;100.00
9774;BME280;4926;42.670;23.316;2023-09-19T05:36:38;94858.69;;;17.08;100.00
9774;BME280;4926;42.670;23.316;2023-09-19T05:39:05;94863.28;;;17.16;100.00
9774;BME280;4926;42.670;23.316;2023-09-19T05:41:44;94862.09;;;17.34;100.00
9774;BME280;4926;42.670;23.316;2023-09-19T05:44:13;94860.50;;;17.50;100.00
9774;BME280;4926;42.670;23.316;2023-09-19T05:46:40;94852.78;;;17.77;100.00
9774;BME280;4926;42.670;23.316;2023-09-19T05:49:07;94856.94;;;17.75;99.55
9774;BME280;4926;42.670;23.316;2023-09-19T05:51:34;94860.53;;;17.88;99.95
9774;BME280;4926;42.670;23.316;2023-09-19T05:54:01;94852.09;;;17.89;98.00
9774;BME280;4926;42.670;23.316;2023-09-19T05:56:28;94860.84;;;17.86;97.20
9774;BME280;4926;42.670;23.316;2023-09-19T05:58:56;94856.97;;;17.96;98.45
9774;BME280;4926;42.670;23.316;2023-09-19T06:01:23;94854.19;;;18.13;97.42
9774;BME280;4926;42.670;23.316;2023-09-19T06:03:50;94847.56;;;18.31;95.58
9774;BME280;4926;42.670;23.316;2023-09-19T06:06:18;94844.56;;;18.32;94.99
9774;BME280;4926;42.670;23.316;2023-09-19T06:08:45;94847.34;;;18.44;93.83
9774;BME280;4926;42.670;23.316;2023-09-19T06:11:12;94851.50;;;18.42;93.33
9774;BME280;4926;42.670;23.316;2023-09-19T06:13:38;94853.81;;;18.52;91.26
9774;BME280;4926;42.670;23.316;2023-09-19T06:16:07;94845.91;;;18.47;92.19
9774;BME280;4926;42.670;23.316;2023-09-19T06:18:35;94848.53;;;18.76;91.90
9774;BME280;4926;42.670;23.316;2023-09-19T06:21:04;94844.69;;;18.98;89.85
9774;BME280;4926;42.670;23.316;2023-09-19T06:23:33;94842.50;;;19.24;88.69
9774;BME280;4926;42.670;23.316;2023-09-19T06:26:00;94835.63;;;19.47;85.09
9774;BME280;4926;42.670;23.316;2023-09-19T06:28:30;94831.84;;;19.27;84.55
9774;BME280;4926;42.670;23.316;2023-09-19T06:30:58;94835.16;;;19.33;84.46
9774;BME280;4926;42.670;23.316;2023-09-19T06:33:27;94827.06;;;19.45;84.23
9774;BME280;4926;42.670;23.316;2023-09-19T06:35:56;94834.97;;;19.74;83.62
9774;BME280;4926;42.670;23.316;2023-09-19T06:38:27;94829.13;;;20.08;80.93
9774;BME280;4926;42.670;23.316;2023-09-19T06:40:54;94827.88;;;20.18;78.78
9774;BME280;4926;42.670;23.316;2023-09-19T06:43:24;94832.03;;;20.39;77.19
9774;BME280;4926;42.670;23.316;2023-09-19T06:45:51;94831.19;;;20.51;76.79
9774;BME280;4926;42.670;23.316;2023-09-19T06:48:22;94827.34;;;20.64;76.50
9774;BME280;4926;42.670;23.316;2023-09-19T06:50:53;94841.22;;;20.62;77.35
9774;BME280;4926;42.670;23.316;2023-09-19T06:53:22;94837.72;;;20.62;76.35
9774;BME280;4926;42.670;23.316;2023-09-19T06:55:50;94839.84;;;20.68;76.78
9774;BME280;4926;42.670;23.316;2023-09-19T06:58:17;94839.63;;;20.61;76.98
9774;BME280;4926;42.670;23.316;2023-09-19T07:00:47;94836.22;;;20.76;75.64
9774;BME280;4926;42.670;23.316;2023-09-19T07:03:15;94842.59;;;20.84;76.29
9774;BME280;4926;42.670;23.316;2023-09-19T07:05:44;94842.00;;;21.02;75.42
9774;BME280;4926;42.670;23.316;2023-09-19T07:08:12;94828.84;;;21.17;73.32
9774;BME280;4926;42.670;23.316;2023-09-19T07:10:41;94834.41;;;20.68;74.99
9774;BME280;4926;42.670;23.316;2023-09-19T07:13:14;94845.28;;;20.56;75.73
9774;BME280;4926;42.670;23.316;2023-09-19T07:15:43;94845.72;;;20.58;76.02
9774;BME280;4926;42.670;23.316;2023-09-19T07:18:13;94843.44;;;20.72;75.41
9774;BME280;4926;42.670;23.316;2023-09-19T07:20:42;94836.53;;;20.75;75.20
9774;BME280;4926;42.670;23.316;2023-09-19T07:23:15;94848.84;;;20.72;75.05
9774;BME280;4926;42.670;23.316;2023-09-19T07:25:43;94849.72;;;20.88;74.94
9774;BME280;4926;42.670;23.316;2023-09-19T07:28:12;94834.00;;;20.94;73.58
9774;BME280;4926;42.670;23.316;2023-09-19T07:30:39;94845.16;;;21.04;73.69
9774;BME280;4926;42.670;23.316;2023-09-19T07:33:09;94847.03;;;21.16;72.85
9774;BME280;4926;42.670;23.316;2023-09-19T07:35:44;94843.88;;;21.14;72.26
9774;BME280;4926;42.670;23.316;2023-09-19T07:38:16;94843.06;;;21.14;72.49
9774;BME280;4926;42.670;23.316;2023-09-19T07:40:43;94850.28;;;21.37;74.68
9774;BME280;4926;42.670;23.316;2023-09-19T07:43:10;94838.41;;;21.42;70.86
9774;BME280;4926;42.670;23.316;2023-09-19T07:45:37;94831.06;;;21.27;70.83
9774;BME280;4926;42.670;23.316;2023-09-19T07:48:04;94839.63;;;21.29;71.56
9774;BME280;4926;42.670;23.316;2023-09-19T07:50:34;94844.16;;;21.25;71.65
9774;BME280;4926;42.670;23.316;2023-09-19T07:53:05;94853.03;;;21.53;72.31
9774;BME280;4926;42.670;23.316;2023-09-19T07:55:33;94838.69;;;21.68;69.71
9774;BME280;4926;42.670;23.316;2023-09-19T07:58:00;94848.06;;;21.55;69.57
9774;BME280;4926;42.670;23.316;2023-09-19T08:00:31;94855.56;;;21.46;69.97
9774;BME280;4926;42.670;23.316;2023-09-19T08:03:00;94849.53;;;21.52;69.93
9774;BME280;4926;42.670;23.316;2023-09-19T08:05:31;94853.38;;;21.67;69.53
9774;BME280;4926;42.670;23.316;2023-09-19T08:07:58;94845.59;;;21.50;68.78
9774;BME280;4926;42.670;23.316;2023-09-19T08:10:26;94833.25;;;21.37;69.72
9774;BME280;4926;42.670;23.316;2023-09-19T08:13:02;94830.16;;;21.23;70.27
9774;BME280;4926;42.670;23.316;2023-09-19T08:15:29;94831.06;;;21.27;71.14
9774;BME280;4926;42.670;23.316;2023-09-19T08:17:56;94834.66;;;21.46;71.27
9774;BME280;4926;42.670;23.316;2023-09-19T08:20:23;94828.81;;;21.75;70.33
9774;BME280;4926;42.670;23.316;2023-09-19T08:22:56;94817.28;;;21.94;68.53
9774;BME280;4926;42.670;23.316;2023-09-19T08:25:24;94806.94;;;22.15;67.97
9774;BME280;4926;42.670;23.316;2023-09-19T08:27:55;94809.28;;;22.32;66.64
9774;BME280;4926;42.670;23.316;2023-09-19T08:30:25;94806.34;;;22.56;66.33
9774;BME280;4926;42.670;23.316;2023-09-19T08:32:56;94803.91;;;22.70;65.77
9774;BME280;4926;42.670;23.316;2023-09-19T08:35:24;94806.47;;;23.01;64.49
9774;BME280;4926;42.670;23.316;2023-09-19T08:37:51;94803.00;;;23.23;62.64
9774;BME280;4926;42.670;23.316;2023-09-19T08:40:21;94813.81;;;23.20;62.84
9774;BME280;4926;42.670;23.316;2023-09-19T08:42:55;94805.25;;;23.37;62.73
9774;BME280;4926;42.670;23.316;2023-09-19T08:45:27;94801.63;;;23.75;61.95
9774;BME280;4926;42.670;23.316;2023-09-19T08:48:02;94788.25;;;24.11;60.89
9774;BME280;4926;42.670;23.316;2023-09-19T08:50:33;94783.34;;;24.50;59.29
9774;BME280;4926;42.670;23.316;2023-09-19T08:53:10;94776.47;;;24.30;58.61
9774;BME280;4926;42.670;23.316;2023-09-19T08:55:41;94768.88;;;24.16;58.84
9774;BME280;4926;42.670;23.316;2023-09-19T08:58:11;94783.66;;;23.93;59.24
9774;BME280;4926;42.670;23.316;2023-09-19T09:00:44;94777.59;;;23.77;59.61
9774;BME280;4926;42.670;23.316;2023-09-19T09:03:13;94771.25;;;23.47;60.60
9774;BME280;4926;42.670;23.316;2023-09-19T09:05:46;94782.28;;;23.57;61.22
9774;BME280;4926;42.670;23.316;2023-09-19T09:08:18;94775.44;;;23.41;60.71
9774;BME280;4926;42.670;23.316;2023-09-19T09:13:17;94807.75;;;22.69;62.64
9774;BME280;4926;42.670;23.316;2023-09-19T09:15:48;94792.63;;;22.87;62.68
9774;BME280;4926;42.670;23.316;2023-09-19T09:18:19;94788.69;;;23.04;62.67
9774;BME280;4926;42.670;23.316;2023-09-19T09:20:48;94762.44;;;23.11;61.50
9774;BME280;4926;42.670;23.316;2023-09-19T09:23:17;94778.66;;;23.08;62.98
9774;BME280;4926;42.670;23.316;2023-09-19T09:25:49;94773.63;;;22.87;62.32
9774;BME280;4926;42.670;23.316;2023-09-19T09:28:21;94781.31;;;22.47;63.77
9774;BME280;4926;42.670;23.316;2023-09-19T09:30:49;94777.63;;;22.93;63.82
9774;BME280;4926;42.670;23.316;2023-09-19T09:33:19;94756.03;;;23.00;63.39
9774;BME280;4926;42.670;23.316;2023-09-19T09:35:51;94769.56;;;23.61;62.00
9774;BME280;4926;42.670;23.316;2023-09-19T09:38:19;94755.13;;;23.57;60.24
9774;BME280;4926;42.670;23.316;2023-09-19T09:40:47;94752.59;;;23.94;60.13
9774;BME280;4926;42.670;23.316;2023-09-19T09:43:26;94742.56;;;23.98;59.13
9774;BME280;4926;42.670;23.316;2023-09-19T09:46:15;94744.88;;;24.22;59.57
9774;BME280;4926;42.670;23.316;2023-09-19T09:49:03;94739.09;;;24.27;59.10
9774;BME280;4926;42.670;23.316;2023-09-19T09:51:51;94730.56;;;24.58;57.17
9774;BME280;4926;42.670;23.316;2023-09-19T09:54:26;94712.22;;;25.21;55.78
9774;BME280;4926;42.670;23.316;2023-09-19T09:57:00;94706.38;;;25.23;55.64
9774;BME280;4926;42.670;23.316;2023-09-19T09:59:49;94708.34;;;25.22;55.06
9774;BME280;4926;42.670;23.316;2023-09-19T10:02:20;94707.91;;;25.17;54.98
9774;BME280;4926;42.670;23.316;2023-09-19T10:04:51;94707.91;;;25.17;54.90
9774;BME280;4926;42.670;23.316;2023-09-19T10:07:35;94701.69;;;25.20;55.52
9774;BME280;4926;42.670;23.316;2023-09-19T10:10:09;94713.53;;;25.34;55.89
9774;BME280;4926;42.670;23.316;2023-09-19T10:12:44;94704.22;;;25.39;55.32
9774;BME280;4926;42.670;23.316;2023-09-19T10:15:15;94701.94;;;25.45;53.75
9774;BME280;4926;42.670;23.316;2023-09-19T10:17:44;94703.06;;;25.00;54.44
9774;BME280;4926;42.670;23.316;2023-09-19T10:20:16;94702.84;;;24.79;55.43
9774;BME280;4926;42.670;23.316;2023-09-19T10:23:07;94704.44;;;24.83;55.19
9774;BME280;4926;42.670;23.316;2023-09-19T10:25:47;94704.84;;;24.85;55.15
9774;BME280;4926;42.670;23.316;2023-09-19T10:28:15;94708.25;;;24.75;55.91
9774;BME280;4926;42.670;23.316;2023-09-19T10:30:48;94711.28;;;24.41;56.33
9774;BME280;4926;42.670;23.316;2023-09-19T10:33:19;94707.66;;;24.29;56.84
9774;BME280;4926;42.670;23.316;2023-09-19T10:35:48;94704.66;;;24.38;57.37
9774;BME280;4926;42.670;23.316;2023-09-19T10:38:18;94702.56;;;24.58;56.56
9774;BME280;4926;42.670;23.316;2023-09-19T10:40:49;94702.38;;;24.73;55.61
9774;BME280;4926;42.670;23.316;2023-09-19T10:43:18;94708.38;;;24.56;55.58
9774;BME280;4926;42.670;23.316;2023-09-19T10:45:47;94699.50;;;24.63;55.67
9774;BME280;4926;42.670;23.316;2023-09-19T10:48:15;94699.38;;;24.52;56.21
9774;BME280;4926;42.670;23.316;2023-09-19T10:50:48;94692.69;;;24.46;56.21
9774;BME280;4926;42.670;23.316;2023-09-19T10:53:17;94690.50;;;24.59;56.42
9774;BME280;4926;42.670;23.316;2023-09-19T10:55:53;94692.53;;;24.65;56.53
9774;BME280;4926;42.670;23.316;2023-09-19T10:58:27;94691.69;;;24.58;56.19
9774;BME280;4926;42.670;23.316;2023-09-19T11:00:56;94691.63;;;24.54;56.58
9774;BME280;4926;42.670;23.316;2023-09-19T11:03:28;94684.69;;;24.60;55.67
9774;BME280;4926;42.670;23.316;2023-09-19T11:06:05;94685.84;;;24.59;56.31
9774;BME280;4926;42.670;23.316;2023-09-19T11:09:05;94684.06;;;24.70;55.94
9774;BME280;4926;42.670;23.316;2023-09-19T11:11:48;94682.44;;;24.66;56.08
9774;BME280;4926;42.670;23.316;2023-09-19T11:14:41;94681.03;;;24.75;56.02
9774;BME280;4926;42.670;23.316;2023-09-19T11:17:37;94665.56;;;24.53;56.10
9774;BME280;4926;42.670;23.316;2023-09-19T11:20:29;94673.50;;;24.69;55.53
9774;BME280;4926;42.670;23.316;2023-09-19T11:23:24;94670.66;;;24.91;55.49
9774;BME280;4926;42.670;23.316;2023-09-19T11:25:53;94664.13;;;24.99;55.74
9774;BME280;4926;42.670;23.316;2023-09-19T11:28:35;94674.03;;;24.78;56.35
9774;BME280;4926;42.670;23.316;2023-09-19T11:34:43;94661.13;;;25.11;55.14
9774;BME280;4926;42.670;23.316;2023-09-19T11:40:29;94639.50;;;25.32;53.54
9774;BME280;4926;42.670;23.316;2023-09-19T11:42:56;94642.97;;;25.26;53.66
9774;BME280;4926;42.670;23.316;2023-09-19T11:48:32;94620.22;;;25.52;53.96
9774;BME280;4926;42.670;23.316;2023-09-19T11:51:00;94614.56;;;25.85;53.67
9774;BME280;4926;42.670;23.316;2023-09-19T11:53:33;94613.84;;;25.95;53.21
9774;BME280;4926;42.670;23.316;2023-09-19T11:56:05;94620.84;;;25.89;52.94
9774;BME280;4926;42.670;23.316;2023-09-19T11:58:37;94613.41;;;25.89;52.69
9774;BME280;4926;42.670;23.316;2023-09-19T12:01:05;94613.09;;;25.98;51.97
9774;BME280;4926;42.670;23.316;2023-09-19T12:03:41;94605.03;;;26.29;51.00
9774;BME280;4926;42.670;23.316;2023-09-19T12:06:13;94584.84;;;26.55;50.57
9774;BME280;4926;42.670;23.316;2023-09-19T12:08:42;94580.22;;;26.66;50.28
9774;BME280;4926;42.670;23.316;2023-09-19T12:11:14;94581.44;;;27.18;49.98
9774;BME280;4926;42.670;23.316;2023-09-19T12:13:46;94565.44;;;27.30;49.19
9774;BME280;4926;42.670;23.316;2023-09-19T12:16:15;94559.16;;;27.58;49.29
9774;BME280;4926;42.670;23.316;2023-09-19T12:18:43;94559.19;;;27.44;49.07
9774;BME280;4926;42.670;23.316;2023-09-19T12:21:24;94557.59;;;27.54;49.39
9774;BME280;4926;42.670;23.316;2023-09-19T12:24:12;94545.19;;;28.39;47.20
9774;BME280;4926;42.670;23.316;2023-09-19T12:26:42;94532.19;;;28.57;46.78
9774;BME280;4926;42.670;23.316;2023-09-19T12:29:13;94535.53;;;28.82;46.46
9774;BME280;4926;42.670;23.316;2023-09-19T12:31:50;94534.16;;;28.49;46.08
9774;BME280;4926;42.670;23.316;2023-09-19T12:34:22;94513.22;;;28.80;45.94
9774;BME280;4926;42.670;23.316;2023-09-19T12:37:03;94505.19;;;29.10;44.90
9774;BME280;4926;42.670;23.316;2023-09-19T12:39:31;94499.22;;;29.59;44.38
9774;BME280;4926;42.670;23.316;2023-09-19T12:41:59;94497.41;;;30.13;44.03
9774;BME280;4926;42.670;23.316;2023-09-19T12:44:29;94496.09;;;29.95;43.65
9774;BME280;4926;42.670;23.316;2023-09-19T12:46:56;94492.31;;;30.12;43.32
9774;BME280;4926;42.670;23.316;2023-09-19T12:49:24;94482.63;;;29.74;44.05
9774;BME280;4926;42.670;23.316;2023-09-19T12:51:57;94504.59;;;29.29;44.04
9774;BME280;4926;42.670;23.316;2023-09-19T12:54:25;94499.44;;;29.38;44.06
9774;BME280;4926;42.670;23.316;2023-09-19T12:56:56;94496.06;;;29.61;44.22
9774;BME280;4926;42.670;23.316;2023-09-19T12:59:32;94484.00;;;30.19;43.28
9774;BME280;4926;42.670;23.316;2023-09-19T13:02:05;94486.88;;;30.08;42.96
9774;BME280;4926;42.670;23.316;2023-09-19T13:04:39;94491.13;;;30.13;43.19
9774;BME280;4926;42.670;23.316;2023-09-19T13:07:42;94477.31;;;30.20;43.25
9774;BME280;4926;42.670;23.316;2023-09-19T13:10:11;94467.69;;;29.75;43.70
9774;BME280;4926;42.670;23.316;2023-09-19T13:12:42;94482.97;;;30.06;43.48
9774;BME280;4926;42.670;23.316;2023-09-19T13:15:20;94474.06;;;30.55;42.96
9774;BME280;4926;42.670;23.316;2023-09-19T13:17:49;94475.91;;;30.38;42.77
9774;BME280;4926;42.670;23.316;2023-09-19T13:20:23;94479.97;;;29.97;43.50
9774;BME280;4926;42.670;23.316;2023-09-19T13:23:03;94473.38;;;30.21;43.29
9774;BME280;4926;42.670;23.316;2023-09-19T13:25:38;94469.75;;;29.97;44.06
9774;BME280;4926;42.670;23.316;2023-09-19T13:28:08;94457.19;;;30.00;43.72
9774;BME280;4926;42.670;23.316;2023-09-19T13:30:38;94453.06;;;29.85;43.74
9774;BME280;4926;42.670;23.316;2023-09-19T13:33:11;94449.84;;;30.20;43.37
9774;BME280;4926;42.670;23.316;2023-09-19T13:35:47;94451.72;;;30.53;42.90
9774;BME280;4926;42.670;23.316;2023-09-19T13:38:16;94443.78;;;30.85;42.16
9774;BME280;4926;42.670;23.316;2023-09-19T13:40:46;94437.84;;;31.10;41.66